createdAt,value
2023-09-06T00:02:18.126Z,19.82
2023-09-06T00:04:46.591Z,19.80
2023-09-06T00:07:13.968Z,19.78
2023-09-06T00:09:41.511Z,19.78
2023-09-06T00:12:08.931Z,19.79
2023-09-06T00:14:38.032Z,19.76
2023-09-06T00:17:06.175Z,19.72
2023-09-06T00:19:33.690Z,19.72
2023-09-06T00:22:01.032Z,19.71
2023-09-06T00:24:28.498Z,19.68
2023-09-06T00:26:59.289Z,19.67
2023-09-06T00:29:26.565Z,19.64
2023-09-06T00:31:53.842Z,19.60
2023-09-06T00:34:21.381Z,19.58
2023-09-06T00:36:48.643Z,19.54
2023-09-06T00:39:16.343Z,19.50
2023-09-06T00:41:43.564Z,19.49
2023-09-06T00:44:11.307Z,19.46
2023-09-06T00:46:39.166Z,19.44
2023-09-06T00:49:08.847Z,19.42
2023-09-06T00:51:36.218Z,19.41
2023-09-06T00:54:03.850Z,19.38
2023-09-06T00:56:31.548Z,19.35
2023-09-06T00:58:58.823Z,19.32
2023-09-06T01:01:26.918Z,19.29
2023-09-06T01:03:54.779Z,19.27
2023-09-06T01:06:24.823Z,19.21
2023-09-06T01:09:01.837Z,19.16
2023-09-06T01:11:29.265Z,19.09
2023-09-06T01:14:00.665Z,19.03
2023-09-06T01:16:34.470Z,19.03
2023-09-06T01:19:02.131Z,19.05
2023-09-06T01:21:37.189Z,19.07
2023-09-06T01:24:06.629Z,19.07
2023-09-06T01:26:33.767Z,19.08
2023-09-06T01:29:01.101Z,19.08
2023-09-06T01:31:29.018Z,19.06
2023-09-06T01:33:56.763Z,19.00
2023-09-06T01:36:23.965Z,18.97
2023-09-06T01:38:54.016Z,18.96
2023-09-06T01:41:21.572Z,18.97
2023-09-06T01:43:51.556Z,18.95
2023-09-06T01:46:21.757Z,18.95
2023-09-06T01:48:49.898Z,18.93
2023-09-06T01:51:17.505Z,18.91
2023-09-06T01:53:45.366Z,18.91
2023-09-06T01:56:12.583Z,18.93
2023-09-06T01:58:39.837Z,18.92
2023-09-06T02:01:07.256Z,18.91
2023-09-06T02:03:34.959Z,18.91
2023-09-06T02:06:02.684Z,18.91
2023-09-06T02:08:30.782Z,18.93
2023-09-06T02:10:58.364Z,18.95
2023-09-06T02:13:27.459Z,18.92
2023-09-06T02:15:55.054Z,18.90
2023-09-06T02:18:22.358Z,18.90
2023-09-06T02:20:51.458Z,18.89
2023-09-06T02:23:18.720Z,18.86
2023-09-06T02:25:46.777Z,18.84
2023-09-06T02:28:15.701Z,18.83
2023-09-06T02:30:47.121Z,18.81
2023-09-06T02:33:16.124Z,18.81
2023-09-06T02:35:43.505Z,18.80
2023-09-06T02:38:11.269Z,18.79
2023-09-06T02:40:44.399Z,18.81
2023-09-06T02:43:12.525Z,18.80
2023-09-06T02:45:40.723Z,18.78
2023-09-06T02:48:08.929Z,18.76
2023-09-06T02:50:37.142Z,18.75
2023-09-06T02:53:04.905Z,18.76
2023-09-06T02:55:36.718Z,18.75
2023-09-06T02:58:06.172Z,18.75
2023-09-06T03:00:37.442Z,18.75
2023-09-06T03:03:07.947Z,18.71
2023-09-06T03:05:43.003Z,18.64
2023-09-06T03:08:14.640Z,18.56
2023-09-06T03:10:42.320Z,18.52
2023-09-06T03:13:13.483Z,18.49
2023-09-06T03:15:45.098Z,18.46
2023-09-06T03:18:13.465Z,18.45
2023-09-06T03:20:46.895Z,18.47
2023-09-06T03:23:22.128Z,18.43
2023-09-06T03:25:59.605Z,18.41
2023-09-06T03:28:33.590Z,18.38
2023-09-06T03:31:02.055Z,18.35
2023-09-06T03:33:30.971Z,18.34
2023-09-06T03:35:59.456Z,18.34
2023-09-06T03:38:28.318Z,18.38
2023-09-06T03:41:03.256Z,18.42
2023-09-06T03:43:33.640Z,18.43
2023-09-06T03:46:06.153Z,18.44
2023-09-06T03:48:36.069Z,18.46
2023-09-06T03:51:04.511Z,18.49
2023-09-06T03:53:33.273Z,18.51
2023-09-06T03:56:01.968Z,18.49
2023-09-06T03:58:45.087Z,18.51
2023-09-06T04:01:13.126Z,18.50
2023-09-06T04:03:43.601Z,18.50
2023-09-06T04:06:12.795Z,18.49
2023-09-06T04:08:41.665Z,18.48
2023-09-06T04:11:12.611Z,18.53
2023-09-06T04:13:41.630Z,18.59
2023-09-06T04:16:09.307Z,18.56
2023-09-06T04:18:38.793Z,18.56
2023-09-06T04:21:10.257Z,18.55
2023-09-06T04:23:41.401Z,18.55
2023-09-06T04:26:11.077Z,18.55
2023-09-06T04:28:38.400Z,18.57
2023-09-06T04:31:09.818Z,18.58
2023-09-06T04:33:40.374Z,18.60
2023-09-06T04:36:13.522Z,18.60
2023-09-06T04:38:40.709Z,18.62
2023-09-06T04:41:11.778Z,18.62
2023-09-06T04:43:45.849Z,18.66
2023-09-06T04:46:15.062Z,18.68
2023-09-06T04:48:47.340Z,18.72
2023-09-06T04:51:15.933Z,18.72
2023-09-06T04:53:45.275Z,18.75
2023-09-06T04:56:17.362Z,18.73
2023-09-06T04:58:50.336Z,18.75
2023-09-06T05:01:17.681Z,18.79
2023-09-06T05:03:46.873Z,18.84
2023-09-06T05:06:14.903Z,18.90
2023-09-06T05:08:43.856Z,18.97
2023-09-06T05:11:21.324Z,19.01
2023-09-06T05:13:51.132Z,19.04
2023-09-06T05:16:19.648Z,19.07
2023-09-06T05:18:49.880Z,19.09
2023-09-06T05:21:19.819Z,19.12
2023-09-06T05:23:47.328Z,19.16
2023-09-06T05:26:14.541Z,19.19
2023-09-06T05:28:46.477Z,19.23
2023-09-06T05:31:14.369Z,19.28
2023-09-06T05:33:44.450Z,19.31
2023-09-06T05:36:14.544Z,19.34
2023-09-06T05:38:43.000Z,19.36
2023-09-06T05:41:12.871Z,19.39
2023-09-06T05:43:43.419Z,19.45
2023-09-06T05:46:29.658Z,19.51
2023-09-06T05:49:00.984Z,19.54
2023-09-06T05:51:32.879Z,19.54
2023-09-06T05:54:01.991Z,19.57
2023-09-06T05:56:30.940Z,19.60
2023-09-06T05:58:59.804Z,19.64
2023-09-06T06:01:27.878Z,19.70
2023-09-06T06:03:55.414Z,19.73
2023-09-06T06:06:23.922Z,19.77
2023-09-06T06:08:51.645Z,19.81
2023-09-06T06:11:19.001Z,19.85
2023-09-06T06:13:53.195Z,19.90
2023-09-06T06:16:28.118Z,19.96
2023-09-06T06:18:55.568Z,20.03
2023-09-06T06:21:23.400Z,20.09
2023-09-06T06:23:51.125Z,20.16
2023-09-06T06:26:20.698Z,20.22
2023-09-06T06:28:48.568Z,20.28
2023-09-06T06:31:16.268Z,20.34
2023-09-06T06:33:44.792Z,20.37
2023-09-06T06:36:12.071Z,20.40
2023-09-06T06:38:39.341Z,20.42
2023-09-06T06:41:06.964Z,20.47
2023-09-06T06:43:35.056Z,20.53
2023-09-06T06:46:05.752Z,20.58
2023-09-06T06:48:33.794Z,20.67
2023-09-06T06:51:01.067Z,20.74
2023-09-06T06:53:28.333Z,20.79
2023-09-06T06:55:55.683Z,20.84
2023-09-06T06:58:23.190Z,20.89
2023-09-06T07:00:50.765Z,20.96
2023-09-06T07:03:18.232Z,21.01
2023-09-06T07:05:45.553Z,21.07
2023-09-06T07:08:12.855Z,21.14
2023-09-06T07:10:40.016Z,21.21
2023-09-06T07:13:07.358Z,21.28
2023-09-06T07:15:35.009Z,21.34
2023-09-06T07:18:06.012Z,21.42
2023-09-06T07:20:33.942Z,21.48
2023-09-06T07:23:01.241Z,21.56
2023-09-06T07:25:29.264Z,21.64
2023-09-06T07:27:58.577Z,21.71
2023-09-06T07:30:26.717Z,21.78
2023-09-06T07:32:54.474Z,21.85
2023-09-06T07:35:22.006Z,21.93
2023-09-06T07:37:49.439Z,22.02
2023-09-06T07:40:16.854Z,22.09
2023-09-06T07:42:44.034Z,22.18
2023-09-06T07:45:11.747Z,22.24
2023-09-06T07:47:39.361Z,22.30
2023-09-06T07:50:10.492Z,22.34
2023-09-06T07:52:38.508Z,22.42
2023-09-06T07:55:06.739Z,22.50
2023-09-06T07:57:33.961Z,22.59
2023-09-06T08:00:01.272Z,22.70
2023-09-06T08:02:28.580Z,22.82
2023-09-06T08:04:55.884Z,22.92
2023-09-06T08:07:23.715Z,22.96
2023-09-06T08:09:51.021Z,23.02
2023-09-06T08:12:18.436Z,23.07
2023-09-06T08:14:45.739Z,23.13
2023-09-06T08:17:14.071Z,23.16
2023-09-06T08:19:41.335Z,23.21
2023-09-06T08:22:08.607Z,23.25
2023-09-06T08:24:36.232Z,23.34
2023-09-06T08:27:06.457Z,23.42
2023-09-06T08:29:34.127Z,23.46
2023-09-06T08:32:01.684Z,23.50
2023-09-06T08:34:29.308Z,23.58
2023-09-06T08:36:57.985Z,23.66
2023-09-06T08:39:25.453Z,23.74
2023-09-06T08:41:53.676Z,23.79
2023-09-06T08:44:22.863Z,23.83
2023-09-06T08:46:50.218Z,23.87
2023-09-06T08:49:17.617Z,23.85
2023-09-06T08:51:44.917Z,23.89
2023-09-06T08:54:13.930Z,23.94
2023-09-06T08:56:41.332Z,24.04
2023-09-06T08:59:10.048Z,24.16
2023-09-06T09:01:39.314Z,24.24
2023-09-06T09:04:06.903Z,24.30
2023-09-06T09:06:34.831Z,24.35
2023-09-06T09:09:15.656Z,24.42
2023-09-06T09:11:47.229Z,24.43
2023-09-06T09:14:27.647Z,24.48
2023-09-06T09:16:59.411Z,24.57
2023-09-06T09:19:27.146Z,24.63
2023-09-06T09:21:56.552Z,24.70
2023-09-06T09:24:30.800Z,24.73
2023-09-06T09:26:58.497Z,24.76
2023-09-06T09:29:26.666Z,24.83
2023-09-06T09:31:54.417Z,24.92
2023-09-06T09:34:22.544Z,24.93
2023-09-06T09:36:52.233Z,24.96
2023-09-06T09:39:20.552Z,25.00
2023-09-06T09:41:59.025Z,25.07
2023-09-06T09:44:27.927Z,25.17
2023-09-06T09:46:56.118Z,25.24
2023-09-06T09:49:23.438Z,25.27
2023-09-06T09:51:51.587Z,25.34
2023-09-06T09:54:19.327Z,25.35
2023-09-06T09:56:50.909Z,25.35
2023-09-06T09:59:18.147Z,25.37
2023-09-06T10:01:45.965Z,25.41
2023-09-06T10:04:13.613Z,25.46
2023-09-06T10:06:41.094Z,25.51
2023-09-06T10:09:14.293Z,25.62
2023-09-06T10:11:42.209Z,25.70
2023-09-06T10:14:09.409Z,25.75
2023-09-06T10:16:37.087Z,25.74
2023-09-06T10:19:04.763Z,25.75
2023-09-06T10:21:33.177Z,25.79
2023-09-06T10:24:01.915Z,25.80
2023-09-06T10:26:35.386Z,25.83
2023-09-06T10:29:02.818Z,25.87
2023-09-06T10:32:00.653Z,25.92
2023-09-06T10:34:28.290Z,25.95
2023-09-06T10:36:58.414Z,25.99
2023-09-06T10:39:27.358Z,26.03
2023-09-06T10:42:10.356Z,26.07
2023-09-06T10:45:00.333Z,26.12
2023-09-06T10:47:35.180Z,26.20
2023-09-06T10:50:19.069Z,26.31
2023-09-06T10:52:59.915Z,26.41
2023-09-06T10:55:28.875Z,26.47
2023-09-06T10:58:07.701Z,26.48
2023-09-06T11:00:37.953Z,26.54
2023-09-06T11:03:08.534Z,26.51
2023-09-06T11:05:43.972Z,26.49
2023-09-06T11:08:16.013Z,26.48
2023-09-06T11:10:44.584Z,26.50
2023-09-06T11:13:13.585Z,26.52
2023-09-06T11:15:41.511Z,26.55
2023-09-06T11:18:10.385Z,26.60
2023-09-06T11:20:38.055Z,26.59
2023-09-06T11:23:05.455Z,26.56
2023-09-06T11:25:33.422Z,26.59
2023-09-06T11:28:03.948Z,26.62
2023-09-06T11:30:35.183Z,26.66
2023-09-06T11:33:07.530Z,26.70
2023-09-06T11:35:39.706Z,26.75
2023-09-06T11:38:12.472Z,26.82
2023-09-06T11:40:40.302Z,26.82
2023-09-06T11:43:10.177Z,26.82
2023-09-06T11:45:37.460Z,26.82
2023-09-06T11:48:10.367Z,26.79
2023-09-06T11:50:39.826Z,26.86
2023-09-06T11:53:11.113Z,26.92
2023-09-06T11:55:42.892Z,26.95
2023-09-06T11:58:19.792Z,26.97
2023-09-06T12:00:49.420Z,26.99
2023-09-06T12:03:17.764Z,27.03
2023-09-06T12:05:50.344Z,27.09
2023-09-06T12:08:23.730Z,27.11
2023-09-06T12:10:59.618Z,27.14
2023-09-06T12:13:36.063Z,27.14
2023-09-06T12:16:05.634Z,27.12
2023-09-06T12:18:33.854Z,27.18
2023-09-06T12:21:01.659Z,27.22
2023-09-06T12:23:32.039Z,27.25
2023-09-06T12:26:00.191Z,27.21
2023-09-06T12:28:29.381Z,27.26
2023-09-06T12:31:00.139Z,27.23
2023-09-06T12:33:30.622Z,27.22
2023-09-06T12:36:02.129Z,27.19
2023-09-06T12:38:30.740Z,27.15
2023-09-06T12:40:59.284Z,27.15
2023-09-06T12:43:27.878Z,27.10
2023-09-06T12:45:55.774Z,27.08
2023-09-06T12:48:24.424Z,27.01
2023-09-06T12:50:53.065Z,26.95
2023-09-06T12:53:22.727Z,26.84
2023-09-06T12:55:50.778Z,26.77
2023-09-06T12:58:19.153Z,26.77
2023-09-06T13:00:47.283Z,26.81
2023-09-06T13:03:14.944Z,26.78
2023-09-06T13:05:42.918Z,26.79
2023-09-06T13:08:11.317Z,26.78
2023-09-06T13:10:40.310Z,26.76
2023-09-06T13:13:07.833Z,26.77
2023-09-06T13:15:35.166Z,26.78
2023-09-06T13:18:02.765Z,26.76
2023-09-06T13:20:30.751Z,26.73
2023-09-06T13:22:58.513Z,26.75
2023-09-06T13:25:26.146Z,26.77
2023-09-06T13:27:53.529Z,26.75
2023-09-06T13:30:21.259Z,26.74
2023-09-06T13:32:49.373Z,26.70
2023-09-06T13:35:17.348Z,26.69
2023-09-06T13:37:45.597Z,26.62
2023-09-06T13:40:13.409Z,26.57
2023-09-06T13:42:41.192Z,26.55
2023-09-06T13:45:09.491Z,26.50
2023-09-06T13:47:37.296Z,26.45
2023-09-06T13:50:05.394Z,26.44
2023-09-06T13:52:33.030Z,26.42
2023-09-06T13:55:00.704Z,26.37
2023-09-06T13:57:30.058Z,26.31
2023-09-06T13:59:57.676Z,26.27
2023-09-06T14:02:27.006Z,26.29
2023-09-06T14:04:57.373Z,26.26
2023-09-06T14:07:25.055Z,26.27
2023-09-06T14:09:52.677Z,26.27
2023-09-06T14:12:20.298Z,26.28
2023-09-06T14:14:47.701Z,26.23
2023-09-06T14:17:15.176Z,26.19
2023-09-06T14:19:42.629Z,26.21
2023-09-06T14:22:11.631Z,26.17
2023-09-06T14:24:39.378Z,26.14
2023-09-06T14:27:07.062Z,26.08
2023-09-06T14:29:34.423Z,26.10
2023-09-06T14:32:04.471Z,26.06
2023-09-06T14:34:32.204Z,26.04
2023-09-06T14:36:59.911Z,25.99
2023-09-06T14:39:27.517Z,25.96
2023-09-06T14:41:55.216Z,25.92
2023-09-06T14:44:22.895Z,25.92
2023-09-06T14:46:51.074Z,25.88
2023-09-06T14:49:20.793Z,25.78
2023-09-06T14:51:48.099Z,25.66
2023-09-06T14:54:15.359Z,25.60
2023-09-06T14:56:42.639Z,25.56
2023-09-06T14:59:10.813Z,25.52
2023-09-06T15:01:40.187Z,25.49
2023-09-06T15:04:08.857Z,25.47
2023-09-06T15:06:52.945Z,25.43
2023-09-06T15:09:25.723Z,25.37
2023-09-06T15:11:53.863Z,25.35
2023-09-06T15:14:21.338Z,25.31
2023-09-06T15:16:48.810Z,25.28
2023-09-06T15:19:16.099Z,25.21
2023-09-06T15:21:44.655Z,25.18
2023-09-06T15:24:12.501Z,25.15
2023-09-06T15:26:40.657Z,25.11
2023-09-06T15:29:08.392Z,25.08
2023-09-06T15:31:35.933Z,25.03
2023-09-06T15:34:04.632Z,25.01
2023-09-06T15:36:32.325Z,24.98
2023-09-06T15:39:00.490Z,24.96
2023-09-06T15:41:33.623Z,24.92
2023-09-06T15:44:06.169Z,24.87
2023-09-06T15:46:33.845Z,24.82
2023-09-06T15:49:01.281Z,24.78
2023-09-06T15:51:28.843Z,24.73
2023-09-06T15:53:56.293Z,24.66
2023-09-06T15:56:24.195Z,24.60
2023-09-06T15:58:51.747Z,24.55
2023-09-06T16:01:18.968Z,24.50
2023-09-06T16:03:46.544Z,24.43
2023-09-06T16:06:14.079Z,24.36
2023-09-06T16:08:41.398Z,24.29
2023-09-06T16:11:09.417Z,24.22
2023-09-06T16:13:36.683Z,24.12
2023-09-06T16:16:04.093Z,24.05
2023-09-06T16:18:32.428Z,23.99
2023-09-06T16:20:59.828Z,23.93
2023-09-06T16:23:27.504Z,23.90
2023-09-06T16:25:54.612Z,23.82
2023-09-06T16:28:21.857Z,23.77
2023-09-06T16:30:49.231Z,23.72
2023-09-06T16:33:16.954Z,23.68
2023-09-06T16:35:44.380Z,23.61
2023-09-06T16:38:11.564Z,23.58
2023-09-06T16:40:42.769Z,23.49
2023-09-06T16:43:10.500Z,23.45
2023-09-06T16:45:37.718Z,23.40
2023-09-06T16:48:07.056Z,23.38
2023-09-06T16:50:34.264Z,23.31
2023-09-06T16:53:01.548Z,23.28
2023-09-06T16:55:28.910Z,23.23
2023-09-06T16:57:56.122Z,23.18
2023-09-06T17:00:23.906Z,23.10
2023-09-06T17:02:53.856Z,23.04
2023-09-06T17:05:21.793Z,22.99
2023-09-06T17:09:00.796Z,22.92
2023-09-06T17:11:28.471Z,22.88
2023-09-06T17:13:55.875Z,22.83
2023-09-06T17:16:23.197Z,22.79
2023-09-06T17:18:50.508Z,22.74
2023-09-06T17:21:18.578Z,22.72
2023-09-06T17:24:00.710Z,22.67
2023-09-06T17:26:33.681Z,22.64
2023-09-06T17:29:00.972Z,22.59
2023-09-06T17:31:28.733Z,22.54
2023-09-06T17:33:56.770Z,22.49
2023-09-06T17:36:26.594Z,22.46
2023-09-06T17:38:55.304Z,22.44
2023-09-06T17:41:24.278Z,22.42
2023-09-06T17:43:51.979Z,22.39
2023-09-06T17:46:25.877Z,22.35
2023-09-06T17:48:54.308Z,22.30
2023-09-06T17:51:22.152Z,22.25
2023-09-06T17:53:49.565Z,22.21
2023-09-06T17:56:17.856Z,22.13
2023-09-06T17:58:46.335Z,22.07
2023-09-06T18:01:15.629Z,22.03
2023-09-06T18:03:45.424Z,22.01
2023-09-06T18:06:16.032Z,21.98
2023-09-06T18:08:43.893Z,21.96
2023-09-06T18:11:12.953Z,21.95
2023-09-06T18:13:41.352Z,21.91
2023-09-06T18:16:14.125Z,21.84
2023-09-06T18:18:41.538Z,21.77
2023-09-06T18:21:10.677Z,21.69
2023-09-06T18:23:38.844Z,21.64
2023-09-06T18:26:09.199Z,21.56
2023-09-06T18:28:36.917Z,21.49
2023-09-06T18:31:04.413Z,21.45
2023-09-06T18:33:31.805Z,21.39
2023-09-06T18:35:59.416Z,21.35
2023-09-06T18:38:28.027Z,21.32
2023-09-06T18:40:57.176Z,21.30
2023-09-06T18:43:25.355Z,21.28
2023-09-06T18:45:52.930Z,21.24
2023-09-06T18:48:21.981Z,21.22
2023-09-06T18:50:49.714Z,21.19
2023-09-06T18:53:17.388Z,21.17
2023-09-06T18:55:48.278Z,21.16
2023-09-06T18:58:18.638Z,21.15
2023-09-06T19:00:46.571Z,21.13
2023-09-06T19:03:15.055Z,21.14
2023-09-06T19:05:43.441Z,21.15
2023-09-06T19:08:13.356Z,21.16
2023-09-06T19:10:41.600Z,21.16
2023-09-06T19:13:15.687Z,21.14
2023-09-06T19:15:48.221Z,21.14
2023-09-06T19:18:17.066Z,21.13
2023-09-06T19:20:44.778Z,21.12
2023-09-06T19:23:17.836Z,21.11
2023-09-06T19:25:53.057Z,21.10
2023-09-06T19:28:22.551Z,21.06
2023-09-06T19:30:57.876Z,21.06
2023-09-06T19:33:26.782Z,21.05
2023-09-06T19:35:55.479Z,21.05
2023-09-06T19:38:23.668Z,21.03
2023-09-06T19:40:53.335Z,21.01
2023-09-06T19:43:21.123Z,20.98
2023-09-06T19:45:56.552Z,20.97
2023-09-06T19:48:24.304Z,20.94
2023-09-06T19:50:51.722Z,20.92
2023-09-06T19:53:19.052Z,20.87
2023-09-06T19:55:49.562Z,20.85
2023-09-06T19:58:17.424Z,20.80
2023-09-06T20:00:44.527Z,20.72
2023-09-06T20:03:11.901Z,20.69
2023-09-06T20:05:39.358Z,20.64
2023-09-06T20:08:06.923Z,20.61
2023-09-06T20:10:40.226Z,20.63
2023-09-06T20:13:07.526Z,20.59
2023-09-06T20:15:36.985Z,20.55
2023-09-06T20:18:04.648Z,20.51
2023-09-06T20:20:31.906Z,20.49
2023-09-06T20:22:59.535Z,20.48
2023-09-06T20:25:27.545Z,20.48
2023-09-06T20:27:56.463Z,20.48
2023-09-06T20:30:24.074Z,20.46
2023-09-06T20:32:51.477Z,20.43
2023-09-06T20:35:18.931Z,20.41
2023-09-06T20:37:46.221Z,20.38
2023-09-06T20:40:14.729Z,20.37
2023-09-06T20:42:41.859Z,20.34
2023-09-06T20:45:09.300Z,20.29
2023-09-06T20:47:37.009Z,20.27
2023-09-06T20:50:06.288Z,20.24
2023-09-06T20:52:33.665Z,20.23
2023-09-06T20:55:01.075Z,20.25
2023-09-06T20:57:28.381Z,20.24
2023-09-06T20:59:55.746Z,20.20
2023-09-06T21:02:22.928Z,20.13
2023-09-06T21:04:50.233Z,20.10
2023-09-06T21:07:17.845Z,20.08
2023-09-06T21:09:45.197Z,20.06
2023-09-06T21:12:13.464Z,20.04
2023-09-06T21:14:40.670Z,20.02
2023-09-06T21:17:07.922Z,19.98
2023-09-06T21:19:35.165Z,19.96
2023-09-06T21:22:02.442Z,19.91
2023-09-06T21:24:31.287Z,19.89
2023-09-06T21:26:58.883Z,19.88
2023-09-06T21:29:29.167Z,19.89
2023-09-06T21:31:57.587Z,19.91
2023-09-06T21:34:25.063Z,19.91
2023-09-06T21:36:52.531Z,19.89
2023-09-06T21:39:19.816Z,19.87
2023-09-06T21:41:47.114Z,19.85
2023-09-06T21:44:14.661Z,19.86
2023-09-06T21:46:42.087Z,19.83
2023-09-06T21:49:09.503Z,19.80
2023-09-06T21:51:36.757Z,19.77
2023-09-06T21:54:04.181Z,19.75
2023-09-06T21:56:31.501Z,19.74
2023-09-06T21:59:00.595Z,19.74
2023-09-06T22:01:29.578Z,19.71
2023-09-06T22:04:15.844Z,19.64
2023-09-06T22:07:02.347Z,19.62
2023-09-06T22:09:48.182Z,19.60
2023-09-06T22:12:34.508Z,19.58
2023-09-06T22:15:05.620Z,19.57
2023-09-06T22:17:33.030Z,19.53
2023-09-06T22:20:00.368Z,19.51
2023-09-06T22:22:27.846Z,19.47
2023-09-06T22:24:55.167Z,19.46
2023-09-06T22:27:22.466Z,19.46
2023-09-06T22:29:49.965Z,19.47
2023-09-06T22:32:17.259Z,19.48
2023-09-06T22:34:44.569Z,19.47
2023-09-06T22:37:12.500Z,19.45
2023-09-06T22:39:39.791Z,19.47
2023-09-06T22:42:07.029Z,19.44
2023-09-06T22:44:35.372Z,19.43
2023-09-06T22:47:04.084Z,19.40
2023-09-06T22:49:31.784Z,19.39
2023-09-06T22:51:59.037Z,19.38
2023-09-06T22:54:26.413Z,19.35
2023-09-06T22:56:53.561Z,19.34
2023-09-06T22:59:21.964Z,19.32
2023-09-06T23:01:51.283Z,19.29
2023-09-06T23:04:19.000Z,19.27
2023-09-06T23:06:46.935Z,19.25
2023-09-06T23:09:14.532Z,19.27
2023-09-06T23:11:46.750Z,19.24
2023-09-06T23:14:16.592Z,19.25
2023-09-06T23:16:44.156Z,19.24
2023-09-06T23:19:14.433Z,19.25
2023-09-06T23:21:44.263Z,19.25
2023-09-06T23:24:15.393Z,19.21
2023-09-06T23:26:47.442Z,19.23
2023-09-06T23:29:17.281Z,19.23
2023-09-06T23:31:54.606Z,19.24
2023-09-06T23:34:31.609Z,19.21
2023-09-06T23:37:00.924Z,19.20
2023-09-06T23:39:29.538Z,19.19
2023-09-06T23:41:58.446Z,19.19
2023-09-06T23:44:26.109Z,19.17
2023-09-06T23:46:56.093Z,19.14
2023-09-06T23:49:23.802Z,19.13
2023-09-06T23:51:51.118Z,19.13
2023-09-06T23:54:19.968Z,19.13
2023-09-06T23:56:50.246Z,19.12
2023-09-06T23:59:17.948Z,19.13
